createdAt,value
2018-06-05T00:00:57.413Z,13.90
2018-06-05T00:03:25.757Z,13.00
2018-06-05T00:05:54.029Z,13.30
2018-06-05T00:08:22.305Z,12.93
2018-06-05T00:10:50.581Z,13.70
2018-06-05T00:13:18.893Z,13.80
2018-06-05T00:15:47.173Z,14.77
2018-06-05T00:18:15.509Z,13.50
2018-06-05T00:20:43.774Z,13.03
2018-06-05T00:23:12.090Z,13.33
2018-06-05T00:25:40.373Z,14.60
2018-06-05T00:28:08.638Z,13.43
2018-06-05T00:30:37.575Z,13.13
2018-06-05T00:33:05.929Z,12.90
2018-06-05T00:35:34.305Z,12.13
2018-06-05T00:38:02.626Z,14.83
2018-06-05T00:40:30.942Z,12.60
2018-06-05T00:42:59.271Z,13.43
2018-06-05T00:45:28.587Z,11.40
2018-06-05T00:47:56.904Z,12.03
2018-06-05T00:50:25.555Z,11.30
2018-06-05T00:52:53.851Z,11.03
2018-06-05T00:55:22.161Z,11.20
2018-06-05T00:57:50.461Z,11.63
2018-06-05T01:00:18.814Z,11.30
2018-06-05T01:02:47.113Z,12.13
2018-06-05T01:05:15.436Z,11.17
2018-06-05T01:07:43.729Z,11.80
2018-06-05T01:10:12.029Z,10.87
2018-06-05T01:12:40.341Z,9.97
2018-06-05T01:15:08.620Z,10.60
2018-06-05T01:17:36.919Z,9.67
2018-06-05T01:20:05.238Z,10.00
2018-06-05T01:22:33.546Z,11.43
2018-06-05T01:25:02.868Z,9.80
2018-06-05T01:27:31.149Z,9.53
2018-06-05T01:29:59.425Z,8.20
2018-06-05T01:32:28.743Z,9.70
2018-06-05T01:34:57.048Z,10.40
2018-06-05T01:37:26.441Z,9.87
2018-06-05T01:39:54.722Z,9.17
2018-06-05T01:42:23.025Z,9.77
2018-06-05T01:44:51.313Z,9.30
2018-06-05T01:47:19.612Z,9.43
2018-06-05T01:49:47.869Z,8.07
2018-06-05T01:52:16.166Z,8.37
2018-06-05T01:54:44.414Z,10.63
2018-06-05T01:57:15.855Z,8.50
2018-06-05T01:59:44.144Z,7.80
2018-06-05T02:02:12.389Z,8.20
2018-06-05T02:04:40.700Z,6.80
2018-06-05T02:07:09.001Z,8.53
2018-06-05T02:09:37.293Z,7.50
2018-06-05T02:12:05.652Z,8.20
2018-06-05T02:14:33.929Z,8.07
2018-06-05T02:17:03.361Z,8.93
2018-06-05T02:19:31.682Z,7.13
2018-06-05T02:21:59.933Z,7.80
2018-06-05T02:24:28.256Z,8.00
2018-06-05T02:26:56.568Z,9.83
2018-06-05T02:29:24.902Z,9.83
2018-06-05T02:31:54.218Z,10.23
2018-06-05T02:34:22.472Z,8.17
2018-06-05T02:36:50.785Z,9.10
2018-06-05T02:39:19.061Z,7.73
2018-06-05T02:41:47.369Z,8.00
2018-06-05T02:44:15.698Z,8.33
2018-06-05T02:46:43.993Z,8.20
2018-06-05T02:49:12.265Z,8.10
2018-06-05T02:51:40.569Z,7.83
2018-06-05T02:54:08.860Z,7.37
2018-06-05T02:56:37.150Z,8.60
2018-06-05T02:59:05.666Z,9.10
2018-06-05T03:01:33.980Z,8.70
2018-06-05T03:04:02.303Z,10.17
2018-06-05T03:06:30.602Z,8.23
2018-06-05T03:08:58.873Z,9.17
2018-06-05T03:11:27.190Z,9.13
2018-06-05T03:13:55.486Z,9.30
2018-06-05T03:16:23.770Z,9.13
2018-06-05T03:18:52.106Z,9.20
2018-06-05T03:21:20.441Z,9.57
2018-06-05T03:23:49.805Z,10.53
2018-06-05T03:26:18.105Z,7.97
2018-06-05T03:28:46.416Z,7.83
2018-06-05T03:31:14.694Z,9.37
2018-06-05T03:33:44.122Z,7.53
2018-06-05T03:36:12.481Z,8.60
2018-06-05T03:38:40.854Z,9.70
2018-06-05T03:41:09.153Z,8.20
2018-06-05T03:43:37.465Z,8.10
2018-06-05T03:46:05.773Z,9.27
2018-06-05T03:48:34.061Z,8.20
2018-06-05T03:51:02.400Z,8.80
2018-06-05T03:53:30.685Z,9.23
2018-06-05T03:55:58.996Z,6.87
2018-06-05T03:58:27.269Z,8.03
2018-06-05T04:00:55.565Z,7.33
2018-06-05T04:03:23.833Z,6.93
2018-06-05T04:05:52.113Z,7.57
2018-06-05T04:08:20.392Z,7.23
2018-06-05T04:10:48.712Z,8.23
2018-06-05T04:13:16.993Z,7.20
2018-06-05T04:15:45.308Z,8.60
2018-06-05T04:18:13.582Z,7.07
2018-06-05T04:20:42.880Z,7.20
2018-06-05T04:23:11.176Z,11.30
2018-06-05T04:25:39.601Z,7.87
2018-06-05T04:28:07.926Z,7.20
2018-06-05T04:30:36.217Z,7.93
2018-06-05T04:33:04.493Z,10.50
2018-06-05T04:35:32.765Z,8.20
2018-06-05T04:38:01.033Z,9.73
2018-06-05T04:40:29.335Z,7.50
2018-06-05T04:42:57.601Z,7.17
2018-06-05T04:45:26.899Z,7.13
2018-06-05T04:47:55.157Z,6.60
2018-06-05T04:50:23.432Z,6.13
2018-06-05T04:52:51.721Z,6.87
2018-06-05T04:55:22.104Z,6.63
2018-06-05T04:57:50.398Z,6.37
2018-06-05T05:00:18.671Z,5.97
2018-06-05T05:02:46.949Z,6.80
2018-06-05T05:05:16.226Z,5.70
2018-06-05T05:07:44.549Z,6.53
2018-06-05T05:10:12.829Z,5.70
2018-06-05T05:12:42.209Z,6.97
2018-06-05T05:15:10.461Z,7.83
2018-06-05T05:17:38.759Z,6.20
2018-06-05T05:20:07.343Z,5.20
2018-06-05T05:22:35.618Z,6.93
2018-06-05T05:25:03.948Z,5.80
2018-06-05T05:27:32.279Z,6.67
2018-06-05T05:30:00.541Z,5.70
2018-06-05T05:32:28.848Z,5.63
2018-06-05T05:34:57.173Z,6.60
2018-06-05T05:37:25.462Z,7.10
2018-06-05T05:39:53.777Z,6.20
2018-06-05T05:42:22.081Z,6.30
2018-06-05T05:44:50.417Z,6.10
2018-06-05T05:47:18.674Z,5.53
2018-06-05T05:49:46.996Z,5.33
2018-06-05T05:52:15.265Z,5.33
2018-06-05T05:54:43.575Z,4.93
2018-06-05T05:57:11.846Z,5.97
2018-06-05T05:59:41.209Z,5.27
2018-06-05T06:02:09.525Z,6.27
2018-06-05T06:04:37.863Z,6.00
2018-06-05T06:07:07.237Z,5.07
2018-06-05T06:09:36.568Z,5.00
2018-06-05T06:12:05.970Z,6.33
2018-06-05T06:14:34.244Z,5.80
2018-06-05T06:17:02.501Z,5.07
2018-06-05T06:19:30.803Z,5.63
2018-06-05T06:21:59.089Z,5.63
2018-06-05T06:24:27.424Z,5.87
2018-06-05T06:26:55.743Z,5.97
2018-06-05T06:29:23.993Z,5.50
2018-06-05T06:31:52.321Z,5.73
2018-06-05T06:34:20.593Z,6.00
2018-06-05T06:36:48.921Z,5.50
2018-06-05T06:39:17.249Z,6.00
2018-06-05T06:41:45.597Z,5.40
2018-06-05T06:44:15.983Z,5.80
2018-06-05T06:46:46.325Z,4.93
2018-06-05T06:49:14.672Z,4.37
2018-06-05T06:51:42.976Z,4.80
2018-06-05T06:54:13.761Z,5.47
2018-06-05T06:56:43.978Z,5.23
2018-06-05T06:59:12.255Z,5.67
2018-06-05T07:01:40.619Z,5.13
2018-06-05T07:04:08.957Z,5.03
2018-06-05T07:06:37.347Z,6.30
2018-06-05T07:09:08.329Z,5.00
2018-06-05T07:11:36.999Z,4.70
2018-06-05T07:14:05.352Z,6.47
2018-06-05T07:16:33.659Z,5.40
2018-06-05T07:19:01.981Z,5.33
2018-06-05T07:21:30.307Z,5.70
2018-06-05T07:23:59.721Z,5.83
2018-06-05T07:26:27.962Z,6.10
2018-06-05T07:28:57.366Z,5.20
2018-06-05T07:31:25.670Z,5.67
2018-06-05T07:33:53.982Z,5.23
2018-06-05T07:36:22.285Z,6.47
2018-06-05T07:38:50.616Z,5.50
2018-06-05T07:41:19.020Z,5.27
2018-06-05T07:43:47.379Z,5.77
2018-06-05T07:46:15.649Z,7.00
2018-06-05T07:48:43.925Z,4.80
2018-06-05T07:51:13.257Z,4.90
2018-06-05T07:53:41.566Z,5.23
2018-06-05T07:56:09.885Z,5.70
2018-06-05T07:58:41.853Z,5.73
2018-06-05T08:01:10.189Z,6.50
2018-06-05T08:03:38.509Z,5.43
2018-06-05T08:06:08.937Z,7.23
2018-06-05T08:08:37.232Z,6.33
2018-06-05T08:11:05.596Z,6.83
2018-06-05T08:13:33.973Z,4.87
2018-06-05T08:16:02.289Z,5.23
2018-06-05T08:18:30.607Z,5.70
2018-06-05T08:20:58.957Z,7.43
2018-06-05T08:23:27.257Z,5.00
2018-06-05T08:25:55.525Z,6.27
2018-06-05T08:28:23.893Z,5.13
2018-06-05T08:30:52.169Z,5.50
2018-06-05T08:33:20.489Z,4.70
2018-06-05T08:35:49.771Z,4.87
2018-06-05T08:38:22.043Z,5.00
2018-06-05T08:40:50.336Z,5.13
2018-06-05T08:43:18.733Z,5.30
2018-06-05T08:45:47.036Z,5.50
2018-06-05T08:48:15.366Z,5.17
2018-06-05T08:50:43.673Z,4.93
2018-06-05T08:53:11.993Z,6.10
2018-06-05T08:55:40.285Z,5.50
2018-06-05T08:58:08.598Z,5.17
2018-06-05T09:00:36.926Z,5.67
2018-06-05T09:03:06.303Z,4.50
2018-06-05T09:05:34.561Z,4.90
2018-06-05T09:08:02.873Z,5.70
2018-06-05T09:10:31.153Z,5.50
2018-06-05T09:13:01.517Z,6.07
2018-06-05T09:15:29.857Z,5.70
2018-06-05T09:17:58.159Z,6.10
2018-06-05T09:20:26.765Z,5.77
2018-06-05T09:22:55.037Z,5.57
2018-06-05T09:25:23.384Z,5.20
2018-06-05T09:27:51.672Z,6.40
2018-06-05T09:30:20.509Z,6.57
2018-06-05T09:32:48.813Z,5.53
2018-06-05T09:35:17.237Z,5.50
2018-06-05T09:37:46.538Z,5.70
2018-06-05T09:40:14.856Z,5.23
2018-06-05T09:42:43.117Z,5.70
2018-06-05T09:45:19.460Z,6.23
2018-06-05T09:47:47.763Z,6.13
2018-06-05T09:50:16.031Z,4.90
2018-06-05T09:52:44.385Z,5.23
2018-06-05T09:55:18.427Z,5.10
2018-06-05T09:57:46.876Z,5.30
2018-06-05T10:00:15.059Z,4.90
2018-06-05T10:02:43.458Z,6.40
2018-06-05T10:05:13.657Z,6.47
2018-06-05T10:07:42.145Z,7.87
2018-06-05T10:10:10.709Z,7.60
2018-06-05T10:12:39.085Z,5.70
2018-06-05T10:15:07.494Z,6.13
2018-06-05T10:17:35.950Z,5.80
2018-06-05T10:20:04.514Z,6.03
2018-06-05T10:22:33.050Z,5.90
2018-06-05T10:25:01.718Z,5.87
2018-06-05T10:27:30.528Z,5.00
2018-06-05T10:29:58.945Z,5.10
2018-06-05T10:32:27.325Z,4.53
2018-06-05T10:34:55.680Z,6.10
2018-06-05T10:37:23.937Z,5.63
2018-06-05T10:39:52.365Z,5.13
2018-06-05T10:42:20.761Z,6.47
2018-06-05T10:44:49.713Z,4.50
2018-06-05T10:47:18.007Z,6.47
2018-06-05T10:49:46.429Z,6.20
2018-06-05T10:52:14.718Z,5.17
2018-06-05T10:54:43.077Z,4.63
2018-06-05T10:57:11.430Z,5.50
2018-06-05T10:59:39.822Z,6.60
2018-06-05T11:02:08.129Z,5.67
2018-06-05T11:04:36.497Z,5.53
2018-06-05T11:07:04.799Z,5.60
2018-06-05T11:09:33.197Z,6.37
2018-06-05T11:12:02.713Z,4.93
2018-06-05T11:14:31.132Z,6.03
2018-06-05T11:16:59.482Z,6.33
2018-06-05T11:19:27.920Z,5.70
2018-06-05T11:21:56.263Z,6.00
2018-06-05T11:24:24.533Z,7.27
2018-06-05T11:26:52.934Z,6.27
2018-06-05T11:29:21.201Z,7.27
2018-06-05T11:31:49.517Z,6.67
2018-06-05T11:34:18.820Z,6.87
2018-06-05T11:36:47.409Z,6.40
2018-06-05T11:39:15.729Z,7.27
2018-06-05T11:41:43.993Z,6.30
2018-06-05T11:44:12.387Z,6.80
2018-06-05T11:46:40.691Z,7.27
2018-06-05T11:49:10.077Z,8.17
2018-06-05T11:51:38.377Z,7.77
2018-06-05T11:54:06.840Z,6.60
2018-06-05T11:56:35.204Z,6.10
2018-06-05T11:59:03.580Z,6.53
2018-06-05T12:01:31.837Z,7.20
2018-06-05T12:04:01.261Z,6.87
2018-06-05T12:06:29.609Z,7.70
2018-06-05T12:08:57.993Z,7.10
2018-06-05T12:11:26.349Z,6.90
2018-06-05T12:13:55.817Z,7.83
2018-06-05T12:16:24.157Z,7.30
2018-06-05T12:18:52.641Z,7.50
2018-06-05T12:21:22.950Z,5.73
2018-06-05T12:23:51.382Z,7.37
2018-06-05T12:26:20.748Z,7.10
2018-06-05T12:28:49.021Z,7.90
2018-06-05T12:31:17.426Z,8.07
2018-06-05T12:33:45.762Z,8.23
2018-06-05T12:36:14.198Z,7.13
2018-06-05T12:38:43.669Z,7.30
2018-06-05T12:41:12.017Z,8.57
2018-06-05T12:43:40.404Z,7.00
2018-06-05T12:46:08.803Z,6.45
2018-06-05T12:48:37.133Z,6.40
2018-06-05T12:51:10.196Z,6.97
2018-06-05T12:53:38.582Z,7.13
2018-06-05T12:56:06.922Z,6.90
2018-06-05T12:58:35.243Z,7.10
2018-06-05T13:01:05.781Z,7.20
2018-06-05T13:03:34.041Z,6.63
2018-06-05T13:06:03.405Z,7.50
2018-06-05T13:08:31.668Z,6.13
2018-06-05T13:10:59.966Z,6.03
2018-06-05T13:13:28.365Z,5.70
2018-06-05T13:15:56.700Z,6.40
2018-06-05T13:18:25.093Z,6.00
2018-06-05T13:20:53.426Z,6.30
2018-06-05T13:23:21.827Z,7.00
2018-06-05T13:25:50.177Z,7.00
2018-06-05T13:28:19.490Z,7.20
2018-06-05T13:30:47.882Z,7.40
2018-06-05T13:33:16.185Z,6.00
2018-06-05T13:35:44.513Z,6.07
2018-06-05T13:38:12.921Z,6.73
2018-06-05T13:40:41.267Z,6.40
2018-06-05T13:43:09.673Z,5.90
2018-06-05T13:45:38.031Z,5.90
2018-06-05T13:48:06.474Z,6.40
2018-06-05T13:50:34.813Z,6.73
2018-06-05T13:53:03.233Z,5.10
2018-06-05T13:55:32.599Z,5.73
2018-06-05T13:58:01.984Z,5.23
2018-06-05T14:00:30.310Z,4.77
2018-06-05T14:02:59.658Z,4.73
2018-06-05T14:05:28.089Z,4.50
2018-06-05T14:07:56.420Z,4.57
2018-06-05T14:10:24.897Z,5.67
2018-06-05T14:12:54.289Z,5.90
2018-06-05T14:15:23.617Z,4.47
2018-06-05T14:17:51.968Z,6.93
2018-06-05T14:20:20.367Z,4.53
2018-06-05T14:22:49.124Z,4.80
2018-06-05T14:25:17.457Z,5.53
2018-06-05T14:27:45.793Z,4.53
2018-06-05T14:30:14.176Z,5.03
2018-06-05T14:32:42.506Z,5.37
2018-06-05T14:35:11.932Z,5.53
2018-06-05T14:37:40.268Z,5.10
2018-06-05T14:40:08.702Z,5.00
2018-06-05T14:42:37.049Z,5.23
2018-06-05T14:45:05.424Z,5.63
2018-06-05T14:47:34.519Z,5.23
2018-06-05T14:50:02.785Z,5.60
2018-06-05T14:52:32.062Z,5.33
2018-06-05T14:55:01.369Z,5.23
2018-06-05T14:57:29.738Z,5.90
2018-06-05T14:59:58.025Z,6.80
2018-06-05T15:02:26.376Z,5.40
2018-06-05T15:04:54.653Z,5.40
2018-06-05T15:07:22.953Z,5.13
2018-06-05T15:09:51.250Z,6.33
2018-06-05T15:12:19.586Z,5.57
2018-06-05T15:14:47.873Z,5.70
2018-06-05T15:17:17.191Z,6.20
2018-06-05T15:19:45.473Z,6.63
2018-06-05T15:22:13.787Z,5.03
2018-06-05T15:24:42.259Z,5.30
2018-06-05T15:27:10.549Z,5.77
2018-06-05T15:29:38.867Z,5.87
2018-06-05T15:32:06.890Z,6.17
2018-06-05T15:34:35.233Z,5.87
2018-06-05T15:37:03.517Z,5.87
2018-06-05T15:39:32.121Z,6.10
2018-06-05T15:42:00.420Z,6.20
2018-06-05T15:44:28.733Z,5.80
2018-06-05T15:46:57.090Z,6.27
2018-06-05T15:49:25.405Z,6.93
2018-06-05T15:51:58.884Z,6.73
2018-06-05T15:54:27.210Z,6.37
2018-06-05T15:56:55.530Z,6.10
2018-06-05T15:59:23.901Z,5.97
2018-06-05T16:01:52.252Z,5.60
2018-06-05T16:04:20.537Z,6.03
2018-06-05T16:06:48.893Z,5.93
2018-06-05T16:09:17.199Z,5.80
2018-06-05T16:11:45.509Z,5.63
2018-06-05T16:14:13.814Z,5.93
2018-06-05T16:16:42.138Z,7.00
2018-06-05T16:19:10.531Z,6.47
2018-06-05T16:21:38.835Z,30.77
2018-06-05T16:24:09.204Z,6.47
2018-06-05T16:26:37.495Z,6.53
2018-06-05T16:29:05.859Z,8.00
2018-06-05T16:31:34.152Z,7.10
2018-06-05T16:34:02.430Z,17.07
2018-06-05T16:36:30.754Z,8.97
2018-06-05T16:38:59.069Z,7.60
2018-06-05T16:41:27.381Z,8.73
2018-06-05T16:43:55.733Z,7.97
2018-06-05T16:46:24.133Z,7.83
2018-06-05T16:48:52.415Z,7.33
2018-06-05T16:51:20.745Z,7.17
2018-06-05T16:53:50.057Z,10.27
2018-06-05T16:56:18.365Z,11.00
2018-06-05T16:58:46.653Z,9.63
2018-06-05T17:01:14.962Z,9.30
2018-06-05T17:03:43.294Z,8.70
2018-06-05T17:06:11.581Z,9.90
2018-06-05T17:08:39.942Z,9.80
2018-06-05T17:11:08.236Z,9.70
2018-06-05T17:13:36.593Z,11.10
2018-06-05T17:16:04.940Z,10.37
2018-06-05T17:18:33.251Z,9.97
2018-06-05T17:21:01.615Z,10.90
2018-06-05T17:23:31.060Z,11.93
2018-06-05T17:25:59.342Z,11.30
2018-06-05T17:28:28.768Z,10.80
2018-06-05T17:30:57.084Z,11.50
2018-06-05T17:33:25.366Z,11.73
2018-06-05T17:35:53.703Z,10.50
2018-06-05T17:38:21.998Z,12.00
2018-06-05T17:40:50.341Z,12.80
2018-06-05T17:43:18.629Z,13.13
2018-06-05T17:45:46.944Z,13.23
2018-06-05T17:48:15.228Z,13.90
2018-06-05T17:50:43.536Z,13.00
2018-06-05T17:53:12.853Z,12.80
2018-06-05T17:55:41.165Z,12.40
2018-06-05T17:58:13.417Z,13.33
2018-06-05T18:00:41.713Z,13.47
2018-06-05T18:03:10.060Z,12.20
2018-06-05T18:05:40.439Z,12.10
2018-06-05T18:08:09.841Z,13.20
2018-06-05T18:10:38.794Z,12.30
2018-06-05T18:13:07.113Z,12.23
2018-06-05T18:15:35.409Z,11.20
2018-06-05T18:18:03.729Z,11.40
2018-06-05T18:20:32.033Z,10.60
2018-06-05T18:23:00.343Z,9.60
2018-06-05T18:25:28.685Z,10.60
2018-06-05T18:27:57.070Z,9.83
2018-06-05T18:30:25.357Z,9.77
2018-06-05T18:32:53.650Z,9.50
2018-06-05T18:35:22.978Z,10.27
2018-06-05T18:37:51.289Z,8.97
2018-06-05T18:40:19.589Z,9.10
2018-06-05T18:42:47.871Z,9.57
2018-06-05T18:45:17.197Z,8.17
2018-06-05T18:47:45.594Z,9.33
2018-06-05T18:50:13.961Z,8.83
2018-06-05T18:52:42.410Z,7.57
2018-06-05T18:55:10.655Z,7.93
2018-06-05T18:57:38.981Z,6.63
2018-06-05T19:00:07.321Z,6.40
2018-06-05T19:02:35.740Z,6.30
2018-06-05T19:05:04.115Z,6.53
2018-06-05T19:07:32.397Z,5.93
2018-06-05T19:10:00.729Z,6.17
2018-06-05T19:12:29.125Z,6.20
2018-06-05T19:15:02.989Z,5.63
2018-06-05T19:17:31.258Z,5.70
2018-06-05T19:19:59.617Z,5.47
2018-06-05T19:22:28.014Z,5.10
2018-06-05T19:24:56.293Z,5.10
2018-06-05T19:27:24.553Z,4.37
2018-06-05T19:29:52.897Z,5.60
2018-06-05T19:32:21.125Z,5.33
2018-06-05T19:34:49.455Z,4.60
2018-06-05T19:37:17.730Z,5.10
2018-06-05T19:39:46.008Z,5.67
2018-06-05T19:42:14.262Z,4.93
2018-06-05T19:44:42.557Z,5.90
2018-06-05T19:47:11.877Z,5.30
2018-06-05T19:50:43.643Z,5.07
2018-06-05T19:53:11.920Z,5.20
2018-06-05T19:55:40.213Z,4.90
2018-06-05T19:58:08.481Z,5.20
2018-06-05T20:00:36.788Z,5.80
2018-06-05T20:03:07.052Z,5.57
2018-06-05T20:05:35.481Z,6.23
2018-06-05T20:08:03.665Z,6.27
2018-06-05T20:10:31.961Z,7.83
2018-06-05T20:13:00.321Z,8.60
2018-06-05T20:15:28.599Z,11.33
2018-06-05T20:17:56.959Z,5.53
2018-06-05T20:20:26.325Z,7.50
2018-06-05T20:22:54.625Z,11.30
2018-06-05T20:25:22.970Z,15.20
2018-06-05T20:27:51.241Z,8.97
2018-06-05T20:30:19.529Z,5.33
2018-06-05T20:32:47.849Z,17.37
2018-06-05T20:35:17.320Z,5.47
2018-06-05T20:37:45.649Z,5.65
2018-06-05T20:40:16.342Z,6.63
2018-06-05T20:42:44.863Z,5.53
2018-06-05T20:45:19.600Z,6.63
2018-06-05T20:47:48.997Z,8.93
2018-06-05T20:50:17.277Z,4.70
2018-06-05T20:52:49.085Z,3.80
2018-06-05T20:55:19.410Z,3.83
2018-06-05T20:57:49.784Z,3.80
2018-06-05T21:00:21.751Z,3.50
2018-06-05T21:02:50.099Z,4.00
2018-06-05T21:05:20.425Z,3.27
2018-06-05T21:07:48.765Z,4.53
2018-06-05T21:10:19.121Z,3.90
2018-06-05T21:12:47.477Z,3.77
2018-06-05T21:15:15.869Z,3.07
2018-06-05T21:17:44.518Z,3.10
2018-06-05T21:20:16.410Z,3.20
2018-06-05T21:22:44.779Z,3.20
2018-06-05T21:25:13.451Z,2.90
2018-06-05T21:27:42.789Z,2.33
2018-06-05T21:30:11.188Z,2.33
2018-06-05T21:32:39.477Z,2.53
2018-06-05T21:35:07.803Z,2.30
2018-06-05T21:37:37.085Z,2.03
2018-06-05T21:40:06.242Z,1.97
2018-06-05T21:42:34.572Z,2.90
2018-06-05T21:45:02.962Z,1.97
2018-06-05T21:47:31.341Z,2.13
2018-06-05T21:50:03.353Z,2.60
2018-06-05T21:52:31.809Z,2.20
2018-06-05T21:55:00.142Z,2.43
2018-06-05T21:57:28.577Z,2.77
2018-06-05T21:59:56.898Z,2.80
2018-06-05T22:02:25.300Z,2.60
2018-06-05T22:04:53.658Z,2.37
2018-06-05T22:07:21.974Z,3.80
2018-06-05T22:09:50.255Z,2.20
2018-06-05T22:12:18.649Z,2.27
2018-06-05T22:14:46.945Z,4.90
2018-06-05T22:17:15.246Z,2.43
2018-06-05T22:19:43.585Z,2.37
2018-06-05T22:22:12.945Z,2.53
2018-06-05T22:24:41.236Z,2.73
2018-06-05T22:27:09.500Z,1.90
2018-06-05T22:29:37.789Z,1.73
2018-06-05T22:32:06.070Z,1.93
2018-06-05T22:34:34.431Z,2.07
2018-06-05T22:37:02.702Z,3.53
2018-06-05T22:39:31.001Z,2.27
2018-06-05T22:41:59.317Z,2.10
2018-06-05T22:44:27.610Z,2.50
2018-06-05T22:46:55.977Z,2.77
2018-06-05T22:49:25.331Z,3.03
2018-06-05T22:51:53.633Z,2.30
2018-06-05T22:54:25.387Z,2.20
2018-06-05T22:56:53.648Z,2.03
2018-06-05T22:59:21.925Z,1.97
2018-06-05T23:01:50.228Z,2.03
2018-06-05T23:04:18.517Z,2.27
2018-06-05T23:06:47.449Z,2.90
2018-06-05T23:09:15.730Z,1.93
2018-06-05T23:11:44.099Z,2.83
2018-06-05T23:14:12.396Z,3.10
2018-06-05T23:16:40.698Z,1.70
2018-06-05T23:19:08.954Z,1.77
2018-06-05T23:21:37.252Z,2.40
2018-06-05T23:24:05.553Z,2.13
2018-06-05T23:26:33.832Z,1.90
2018-06-05T23:29:02.105Z,1.57
2018-06-05T23:31:30.429Z,2.23
2018-06-05T23:33:58.789Z,2.20
2018-06-05T23:36:27.091Z,2.20
2018-06-05T23:38:55.353Z,2.30
2018-06-05T23:41:23.638Z,2.10
2018-06-05T23:43:52.008Z,2.17
2018-06-05T23:46:20.272Z,2.30
2018-06-05T23:48:48.582Z,2.97
2018-06-05T23:51:17.843Z,2.60
2018-06-05T23:53:46.146Z,2.23
2018-06-05T23:56:15.497Z,2.40
2018-06-05T23:58:43.783Z,2.80
